createdAt,value
2022-08-05T00:02:21.767Z,18.92
2022-08-05T00:04:52.871Z,18.83
2022-08-05T00:07:59.180Z,18.77
2022-08-05T00:10:10.023Z,18.76
2022-08-05T00:12:48.483Z,18.67
2022-08-05T00:15:55.250Z,18.65
2022-08-05T00:18:10.573Z,18.54
2022-08-05T00:20:48.874Z,18.45
2022-08-05T00:23:15.623Z,18.41
2022-08-05T00:25:45.923Z,18.19
2022-08-05T00:28:13.209Z,18.15
2022-08-05T00:30:39.810Z,18.08
2022-08-05T00:34:42.258Z,18.19
2022-08-05T00:36:16.455Z,18.19
2022-08-05T00:38:41.708Z,18.24
2022-08-05T00:41:11.801Z,18.22
2022-08-05T00:43:47.012Z,18.26
2022-08-05T00:46:16.228Z,18.16
2022-08-05T00:48:50.751Z,18.14
2022-08-05T00:51:50.888Z,17.95
2022-08-05T00:54:06.628Z,17.79
2022-08-05T00:56:33.363Z,17.78
2022-08-05T00:59:00.240Z,17.79
2022-08-05T01:01:42.585Z,17.78
2022-08-05T01:04:15.689Z,17.88
2022-08-05T01:06:43.840Z,17.77
2022-08-05T01:09:17.413Z,17.70
2022-08-05T01:11:51.733Z,17.49
2022-08-05T01:14:28.090Z,17.47
2022-08-05T01:17:15.499Z,17.40
2022-08-05T01:20:03.694Z,16.70
2022-08-05T01:22:46.920Z,17.27
2022-08-05T01:25:39.686Z,17.21
2022-08-05T01:28:20.926Z,16.75
2022-08-05T01:30:56.479Z,16.91
2022-08-05T01:33:35.483Z,16.83
2022-08-05T01:36:13.080Z,16.69
2022-08-05T01:38:48.468Z,16.82
2022-08-05T01:41:21.907Z,16.25
2022-08-05T01:43:51.227Z,16.92
2022-08-05T01:46:43.031Z,16.74
2022-08-05T01:49:23.406Z,16.64
2022-08-05T01:51:58.815Z,16.53
2022-08-05T01:54:46.327Z,16.66
2022-08-05T01:58:09.487Z,16.21
2022-08-05T02:00:12.062Z,16.12
2022-08-05T02:02:53.585Z,16.02
2022-08-05T02:05:25.293Z,16.31
2022-08-05T02:08:01.152Z,16.37
2022-08-05T02:10:35.460Z,16.60
2022-08-05T02:13:16.317Z,16.62
2022-08-05T02:15:54.291Z,16.61
2022-08-05T02:18:34.489Z,16.60
2022-08-05T02:21:18.735Z,16.59
2022-08-05T02:23:50.614Z,16.51
2022-08-05T02:26:20.987Z,16.64
2022-08-05T02:28:50.121Z,16.59
2022-08-05T02:31:26.781Z,16.37
2022-08-05T02:34:01.267Z,16.61
2022-08-05T02:36:31.467Z,16.55
2022-08-05T02:39:00.393Z,16.71
2022-08-05T02:41:43.430Z,16.76
2022-08-05T02:44:18.121Z,16.32
2022-08-05T02:46:59.928Z,16.80
2022-08-05T02:49:36.658Z,16.50
2022-08-05T02:52:08.731Z,16.66
2022-08-05T02:54:41.137Z,16.41
2022-08-05T02:58:19.726Z,16.22
2022-08-05T03:00:01.322Z,16.43
2022-08-05T03:02:39.867Z,16.50
2022-08-05T03:05:10.319Z,16.38
2022-08-05T03:08:01.213Z,15.95
2022-08-05T03:10:27.113Z,16.18
2022-08-05T03:12:54.513Z,16.14
2022-08-05T03:15:25.518Z,16.13
2022-08-05T03:17:55.796Z,15.70
2022-08-05T03:20:24.388Z,16.26
2022-08-05T03:22:52.836Z,16.18
2022-08-05T03:25:32.612Z,16.25
2022-08-05T03:28:09.648Z,16.28
2022-08-05T03:30:38.331Z,16.27
2022-08-05T03:33:08.351Z,16.19
2022-08-05T03:35:40.429Z,16.13
2022-08-05T03:38:11.571Z,16.25
2022-08-05T03:40:45.295Z,16.03
2022-08-05T03:43:58.554Z,16.13
2022-08-05T03:46:02.845Z,16.15
2022-08-05T03:48:35.543Z,16.28
2022-08-05T03:52:37.822Z,16.26
2022-08-05T03:55:53.008Z,16.05
2022-08-05T03:57:41.906Z,16.52
2022-08-05T04:00:16.010Z,16.59
2022-08-05T04:02:57.750Z,16.63
2022-08-05T04:05:33.914Z,16.54
2022-08-05T04:08:29.550Z,16.79
2022-08-05T04:10:55.358Z,16.92
2022-08-05T04:13:22.884Z,16.94
2022-08-05T04:16:04.446Z,17.11
2022-08-05T04:18:34.381Z,17.03
2022-08-05T04:21:04.655Z,17.24
2022-08-05T04:24:05.659Z,17.23
2022-08-05T04:26:19.950Z,17.72
2022-08-05T04:28:50.876Z,18.01
2022-08-05T04:31:20.450Z,17.96
2022-08-05T04:34:18.029Z,17.86
2022-08-05T04:36:45.634Z,18.01
2022-08-05T04:39:13.305Z,18.29
2022-08-05T04:41:40.371Z,18.32
2022-08-05T04:44:09.599Z,18.70
2022-08-05T04:46:37.612Z,19.23
2022-08-05T04:49:05.971Z,20.03
2022-08-05T04:51:39.401Z,21.13
2022-08-05T04:54:06.138Z,21.86
2022-08-05T04:56:37.196Z,23.34
2022-08-05T04:59:21.607Z,24.20
2022-08-05T05:02:35.473Z,24.33
2022-08-05T05:04:38.191Z,24.49
2022-08-05T05:07:09.419Z,25.18
2022-08-05T05:09:37.223Z,25.68
2022-08-05T05:12:04.884Z,26.16
2022-08-05T05:14:33.322Z,26.22
2022-08-05T05:17:03.721Z,26.89
2022-08-05T05:19:37.289Z,26.60
2022-08-05T05:22:23.117Z,27.17
2022-08-05T05:24:59.803Z,27.37
2022-08-05T05:27:44.636Z,26.63
2022-08-05T05:30:29.077Z,26.06
2022-08-05T05:33:00.631Z,25.67
2022-08-05T05:35:34.251Z,26.06
2022-08-05T05:38:05.584Z,25.30
2022-08-05T05:40:35.709Z,25.44
2022-08-05T05:43:03.606Z,25.28
2022-08-05T05:45:30.868Z,25.44
2022-08-05T05:48:06.333Z,25.31
2022-08-05T05:50:43.940Z,24.90
2022-08-05T05:53:21.117Z,25.02
2022-08-05T05:55:51.941Z,25.03
2022-08-05T05:58:30.177Z,24.92
2022-08-05T06:01:12.078Z,25.21
2022-08-05T06:04:00.872Z,24.96
2022-08-05T06:06:33.238Z,24.91
2022-08-05T06:09:05.607Z,25.04
2022-08-05T06:11:35.104Z,25.03
2022-08-05T06:14:06.358Z,25.49
2022-08-05T06:16:36.766Z,25.27
2022-08-05T06:19:05.476Z,25.26
2022-08-05T06:21:36.065Z,25.08
2022-08-05T06:24:07.753Z,24.91
2022-08-05T06:26:52.391Z,25.18
2022-08-05T06:29:42.948Z,25.17
2022-08-05T06:32:25.644Z,25.19
2022-08-05T06:34:57.212Z,25.36
2022-08-05T06:37:56.014Z,25.42
2022-08-05T06:40:13.661Z,25.67
2022-08-05T06:42:40.994Z,25.40
2022-08-05T06:45:09.425Z,25.26
2022-08-05T06:48:36.742Z,25.35
2022-08-05T06:50:25.039Z,25.59
2022-08-05T06:52:58.554Z,25.73
2022-08-05T06:55:27.271Z,25.87
2022-08-05T06:58:03.890Z,25.80
2022-08-05T07:00:41.724Z,25.54
2022-08-05T07:03:09.670Z,25.64
2022-08-05T07:05:37.727Z,25.69
2022-08-05T07:08:10.721Z,25.77
2022-08-05T07:10:38.109Z,25.97
2022-08-05T07:13:57.114Z,25.69
2022-08-05T07:18:00.995Z,25.88
2022-08-05T07:19:38.923Z,26.28
2022-08-05T07:22:06.851Z,26.44
2022-08-05T07:24:35.184Z,26.51
2022-08-05T07:27:10.898Z,26.62
2022-08-05T07:30:25.408Z,26.25
2022-08-05T07:32:26.175Z,26.92
2022-08-05T07:34:57.738Z,26.52
2022-08-05T07:37:25.111Z,25.80
2022-08-05T07:40:26.818Z,26.03
2022-08-05T07:42:51.730Z,25.98
2022-08-05T07:45:19.253Z,26.26
2022-08-05T07:48:06.210Z,26.37
2022-08-05T07:50:35.450Z,26.41
2022-08-05T07:53:03.582Z,26.86
2022-08-05T07:55:44.396Z,27.15
2022-08-05T07:58:58.593Z,27.40
2022-08-05T08:01:06.184Z,26.74
2022-08-05T08:03:44.852Z,26.84
2022-08-05T08:06:11.929Z,26.63
2022-08-05T08:08:38.559Z,27.20
2022-08-05T08:11:08.925Z,27.18
2022-08-05T08:13:42.960Z,26.61
2022-08-05T08:16:34.354Z,26.65
2022-08-05T08:19:03.791Z,27.32
2022-08-05T08:21:33.391Z,27.71
2022-08-05T08:24:04.972Z,28.50
2022-08-05T08:26:33.093Z,28.50
2022-08-05T08:29:21.837Z,29.06
2022-08-05T08:31:49.703Z,29.05
2022-08-05T08:34:30.867Z,28.88
2022-08-05T08:37:05.326Z,28.79
2022-08-05T08:39:32.703Z,29.17
2022-08-05T08:42:10.816Z,29.22
2022-08-05T08:45:23.840Z,29.33
2022-08-05T08:48:07.050Z,29.48
2022-08-05T08:51:03.833Z,29.37
2022-08-05T08:53:28.894Z,29.65
2022-08-05T08:56:05.252Z,29.70
2022-08-05T08:58:43.098Z,29.70
2022-08-05T09:01:15.805Z,29.68
2022-08-05T09:03:47.565Z,29.42
2022-08-05T09:06:18.667Z,29.74
2022-08-05T09:08:48.609Z,29.75
2022-08-05T09:11:16.142Z,29.72
2022-08-05T09:14:09.517Z,29.67
2022-08-05T09:16:31.039Z,29.96
2022-08-05T09:18:59.411Z,29.75
2022-08-05T09:22:23.426Z,30.04
2022-08-05T09:24:15.941Z,29.97
2022-08-05T09:26:47.616Z,30.27
2022-08-05T09:29:19.272Z,30.30
2022-08-05T09:32:40.284Z,30.22
2022-08-05T09:34:55.206Z,30.32
2022-08-05T09:38:13.054Z,30.42
2022-08-05T09:40:39.673Z,30.14
2022-08-05T09:43:40.560Z,30.95
2022-08-05T09:46:30.501Z,30.96
2022-08-05T09:49:08.433Z,30.55
2022-08-05T09:51:48.815Z,30.77
2022-08-05T09:54:21.364Z,31.10
2022-08-05T09:56:56.214Z,30.86
2022-08-05T09:59:27.690Z,31.17
2022-08-05T10:01:58.397Z,31.40
2022-08-05T10:04:35.897Z,31.47
2022-08-05T10:07:14.246Z,31.56
2022-08-05T10:10:14.379Z,31.68
2022-08-05T10:12:49.699Z,31.57
2022-08-05T10:15:39.226Z,31.79
2022-08-05T10:18:19.832Z,31.69
2022-08-05T10:21:08.467Z,31.71
2022-08-05T10:23:58.974Z,31.37
2022-08-05T10:26:32.352Z,31.17
2022-08-05T10:28:59.950Z,31.64
2022-08-05T10:32:53.354Z,32.22
2022-08-05T10:34:17.161Z,32.34
2022-08-05T10:36:44.326Z,32.42
2022-08-05T10:40:04.305Z,31.92
2022-08-05T10:42:33.592Z,31.71
2022-08-05T10:45:02.346Z,31.62
2022-08-05T10:48:29.994Z,31.26
2022-08-05T10:51:06.181Z,31.32
2022-08-05T10:53:51.820Z,31.22
2022-08-05T10:56:26.041Z,31.41
2022-08-05T10:58:55.934Z,31.45
2022-08-05T11:01:55.082Z,31.72
2022-08-05T11:04:22.604Z,31.50
2022-08-05T11:07:04.555Z,31.44
2022-08-05T11:10:04.006Z,31.42
2022-08-05T11:12:45.361Z,31.40
2022-08-05T11:15:21.296Z,31.45
2022-08-05T11:18:00.087Z,31.41
2022-08-05T11:20:47.608Z,31.69
2022-08-05T11:24:03.846Z,31.62
2022-08-05T11:26:32.341Z,32.14
2022-08-05T11:29:12.146Z,32.68
2022-08-05T11:31:57.406Z,32.87
2022-08-05T11:34:50.882Z,32.86
2022-08-05T11:38:29.525Z,32.24
2022-08-05T11:41:35.698Z,31.39
2022-08-05T11:44:40.139Z,30.93
2022-08-05T11:47:11.763Z,30.81
2022-08-05T11:49:43.351Z,30.83
2022-08-05T11:52:29.198Z,31.37
2022-08-05T11:54:58.511Z,31.16
2022-08-05T11:58:08.624Z,31.62
2022-08-05T12:00:31.765Z,31.96
2022-08-05T12:03:15.848Z,32.28
2022-08-05T12:05:51.072Z,32.84
2022-08-05T12:08:18.633Z,32.77
2022-08-05T12:10:48.725Z,32.70
2022-08-05T12:13:27.839Z,32.99
2022-08-05T12:16:14.129Z,32.34
2022-08-05T12:18:42.710Z,32.14
2022-08-05T12:21:30.279Z,31.92
2022-08-05T12:24:05.248Z,31.87
2022-08-05T12:26:44.023Z,31.49
2022-08-05T12:29:16.388Z,31.34
2022-08-05T12:31:55.275Z,31.12
2022-08-05T12:34:26.857Z,31.10
2022-08-05T12:36:54.720Z,31.30
2022-08-05T12:39:23.715Z,31.07
2022-08-05T12:42:00.218Z,31.02
2022-08-05T12:44:33.229Z,30.74
2022-08-05T12:47:01.771Z,30.79
2022-08-05T12:50:03.253Z,30.75
2022-08-05T12:52:32.367Z,30.89
2022-08-05T12:55:22.127Z,31.26
2022-08-05T12:58:38.235Z,31.57
2022-08-05T13:02:02.521Z,31.79
2022-08-05T13:03:35.206Z,31.78
2022-08-05T13:06:11.606Z,32.13
2022-08-05T13:08:38.918Z,32.60
2022-08-05T13:11:07.978Z,32.89
2022-08-05T13:14:04.569Z,33.22
2022-08-05T13:16:28.005Z,33.41
2022-08-05T13:18:58.738Z,33.47
2022-08-05T13:21:28.520Z,33.47
2022-08-05T13:24:08.796Z,33.77
2022-08-05T13:26:36.365Z,33.81
2022-08-05T13:29:05.194Z,33.30
2022-08-05T13:31:34.063Z,32.82
2022-08-05T13:34:24.492Z,33.20
2022-08-05T13:36:53.838Z,33.45
2022-08-05T13:40:13.176Z,33.56
2022-08-05T13:42:14.680Z,33.04
2022-08-05T13:44:46.169Z,32.86
2022-08-05T13:47:28.175Z,32.79
2022-08-05T13:50:06.863Z,32.14
2022-08-05T13:52:38.292Z,31.99
2022-08-05T13:55:07.302Z,32.15
2022-08-05T13:57:51.050Z,31.98
2022-08-05T14:00:26.882Z,32.07
2022-08-05T14:02:55.855Z,32.15
2022-08-05T14:05:48.269Z,32.08
2022-08-05T14:08:20.255Z,32.25
2022-08-05T14:10:49.047Z,32.28
2022-08-05T14:13:16.378Z,32.33
2022-08-05T14:16:05.294Z,32.70
2022-08-05T14:18:29.821Z,32.86
2022-08-05T14:20:56.475Z,32.82
2022-08-05T14:23:25.762Z,32.46
2022-08-05T14:25:58.490Z,32.60
2022-08-05T14:28:27.860Z,32.67
2022-08-05T14:30:56.650Z,32.75
2022-08-05T14:33:23.693Z,33.07
2022-08-05T14:35:53.956Z,33.59
2022-08-05T14:38:33.299Z,33.61
2022-08-05T14:41:06.945Z,33.61
2022-08-05T14:44:02.318Z,33.35
2022-08-05T14:46:29.162Z,33.25
2022-08-05T14:48:59.595Z,33.32
2022-08-05T14:51:34.006Z,33.31
2022-08-05T14:54:26.435Z,32.95
2022-08-05T14:56:48.294Z,32.06
2022-08-05T14:59:15.934Z,32.10
2022-08-05T15:01:49.008Z,31.70
2022-08-05T15:04:16.940Z,31.71
2022-08-05T15:06:48.978Z,31.71
2022-08-05T15:09:19.443Z,31.75
2022-08-05T15:12:04.794Z,31.65
2022-08-05T15:14:34.963Z,31.81
2022-08-05T15:17:10.014Z,31.64
2022-08-05T15:19:56.299Z,31.57
2022-08-05T15:22:27.032Z,31.68
2022-08-05T15:24:55.077Z,31.84
2022-08-05T15:27:21.700Z,31.82
2022-08-05T15:29:53.160Z,31.60
2022-08-05T15:32:27.138Z,31.66
2022-08-05T15:34:56.712Z,31.80
2022-08-05T15:38:32.842Z,32.05
2022-08-05T15:41:04.794Z,32.19
2022-08-05T15:43:10.948Z,32.21
2022-08-05T15:45:46.104Z,32.14
2022-08-05T15:48:15.181Z,32.05
2022-08-05T15:50:43.909Z,31.97
2022-08-05T15:53:12.641Z,31.94
2022-08-05T15:56:04.323Z,31.18
2022-08-05T15:58:30.042Z,30.98
2022-08-05T16:01:16.682Z,30.61
2022-08-05T16:03:50.257Z,30.61
2022-08-05T16:06:22.747Z,30.56
2022-08-05T16:08:53.664Z,30.50
2022-08-05T16:11:42.952Z,30.38
2022-08-05T16:14:09.517Z,30.41
2022-08-05T16:16:36.820Z,30.61
2022-08-05T16:19:03.932Z,30.65
2022-08-05T16:22:00.619Z,30.69
2022-08-05T16:24:41.453Z,30.65
2022-08-05T16:27:04.969Z,30.56
2022-08-05T16:29:37.412Z,30.52
2022-08-05T16:32:09.525Z,30.45
2022-08-05T16:34:36.481Z,30.46
2022-08-05T16:37:06.063Z,30.31
2022-08-05T16:40:04.665Z,30.18
2022-08-05T16:42:32.874Z,29.99
2022-08-05T16:45:00.457Z,30.01
2022-08-05T16:47:36.313Z,29.89
2022-08-05T16:50:14.756Z,29.88
2022-08-05T16:52:46.171Z,29.83
2022-08-05T16:55:12.983Z,29.44
2022-08-05T16:57:52.555Z,29.71
2022-08-05T17:00:34.983Z,29.45
2022-08-05T17:03:15.286Z,29.24
2022-08-05T17:05:53.584Z,29.19
2022-08-05T17:08:33.591Z,29.09
2022-08-05T17:11:12.787Z,29.05
2022-08-05T17:13:44.532Z,28.90
2022-08-05T17:16:29.825Z,28.65
2022-08-05T17:19:00.917Z,28.66
2022-08-05T17:21:35.589Z,28.56
2022-08-05T17:24:19.569Z,28.39
2022-08-05T17:26:52.737Z,28.24
2022-08-05T17:29:22.430Z,28.18
2022-08-05T17:31:59.738Z,28.02
2022-08-05T17:34:29.560Z,27.97
2022-08-05T17:36:57.363Z,27.92
2022-08-05T17:39:34.089Z,27.65
2022-08-05T17:42:19.801Z,27.58
2022-08-05T17:44:51.991Z,27.45
2022-08-05T17:47:22.238Z,27.39
2022-08-05T17:49:51.949Z,27.32
2022-08-05T17:52:30.601Z,27.31
2022-08-05T17:55:00.178Z,27.26
2022-08-05T17:57:28.402Z,27.24
2022-08-05T18:00:05.015Z,27.12
2022-08-05T18:02:34.123Z,27.13
2022-08-05T18:05:07.610Z,27.11
2022-08-05T18:07:41.370Z,26.99
2022-08-05T18:10:11.254Z,26.98
2022-08-05T18:12:39.565Z,26.98
2022-08-05T18:15:08.685Z,26.95
2022-08-05T18:17:58.927Z,26.83
2022-08-05T18:20:29.279Z,26.79
2022-08-05T18:23:00.683Z,26.75
2022-08-05T18:25:36.929Z,26.73
2022-08-05T18:28:06.890Z,26.73
2022-08-05T18:30:34.978Z,26.69
2022-08-05T18:33:02.344Z,26.69
2022-08-05T18:36:01.154Z,26.70
2022-08-05T18:38:19.275Z,26.43
2022-08-05T18:41:57.092Z,26.34
2022-08-05T18:43:43.214Z,26.23
2022-08-05T18:46:20.132Z,26.17
2022-08-05T18:48:53.531Z,25.98
2022-08-05T18:52:03.976Z,25.98
2022-08-05T18:54:31.340Z,25.91
2022-08-05T18:57:02.398Z,25.70
2022-08-05T18:59:44.470Z,25.52
2022-08-05T19:02:26.938Z,25.40
2022-08-05T19:05:02.114Z,25.14
2022-08-05T19:07:46.110Z,24.88
2022-08-05T19:10:14.553Z,24.85
2022-08-05T19:12:41.580Z,24.87
2022-08-05T19:15:54.673Z,24.76
2022-08-05T19:18:08.785Z,24.76
2022-08-05T19:20:41.288Z,24.66
2022-08-05T19:24:06.101Z,24.67
2022-08-05T19:26:01.595Z,24.42
2022-08-05T19:28:29.300Z,24.47
2022-08-05T19:30:55.989Z,24.40
2022-08-05T19:33:35.019Z,24.26
2022-08-05T19:36:06.377Z,24.25
2022-08-05T19:38:36.763Z,23.91
2022-08-05T19:41:08.930Z,24.21
2022-08-05T19:44:06.759Z,24.14
2022-08-05T19:46:30.340Z,24.06
2022-08-05T19:49:03.136Z,24.09
2022-08-05T19:52:04.551Z,24.03
2022-08-05T19:54:28.393Z,23.63
2022-08-05T19:56:59.801Z,23.67
2022-08-05T19:59:55.177Z,23.59
2022-08-05T20:02:18.301Z,23.50
2022-08-05T20:04:48.272Z,23.31
2022-08-05T20:07:15.470Z,23.57
2022-08-05T20:09:55.020Z,23.62
2022-08-05T20:12:25.171Z,23.49
2022-08-05T20:14:53.387Z,23.56
2022-08-05T20:17:23.407Z,23.47
2022-08-05T20:19:56.559Z,23.47
2022-08-05T20:22:25.010Z,23.27
2022-08-05T20:24:54.780Z,23.16
2022-08-05T20:27:26.993Z,23.23
2022-08-05T20:29:57.849Z,23.15
2022-08-05T20:32:27.518Z,22.89
2022-08-05T20:34:54.898Z,22.87
2022-08-05T20:38:06.705Z,22.71
2022-08-05T20:40:10.287Z,22.81
2022-08-05T20:42:37.611Z,22.78
2022-08-05T20:45:06.982Z,22.83
2022-08-05T20:47:40.067Z,22.87
2022-08-05T20:50:08.077Z,22.84
2022-08-05T20:52:39.237Z,22.95
2022-08-05T20:55:56.899Z,22.86
2022-08-05T20:57:56.418Z,22.88
2022-08-05T21:00:40.743Z,22.83
2022-08-05T21:03:11.020Z,22.65
2022-08-05T21:05:54.127Z,22.62
2022-08-05T21:08:41.405Z,22.46
2022-08-05T21:11:51.568Z,22.43
2022-08-05T21:14:01.013Z,22.28
2022-08-05T21:16:29.702Z,22.25
2022-08-05T21:18:59.972Z,22.07
2022-08-05T21:21:39.501Z,22.11
2022-08-05T21:24:12.879Z,22.11
2022-08-05T21:26:41.492Z,22.03
2022-08-05T21:29:12.616Z,22.00
2022-08-05T21:31:43.695Z,21.88
2022-08-05T21:34:11.545Z,21.55
2022-08-05T21:36:42.439Z,21.53
2022-08-05T21:39:14.349Z,21.45
2022-08-05T21:41:52.426Z,21.31
2022-08-05T21:44:27.025Z,21.34
2022-08-05T21:46:55.643Z,20.95
2022-08-05T21:50:00.199Z,20.89
2022-08-05T21:52:22.826Z,20.81
2022-08-05T21:54:56.367Z,20.76
2022-08-05T21:57:32.433Z,20.66
2022-08-05T22:00:05.773Z,20.70
2022-08-05T22:02:34.777Z,20.74
2022-08-05T22:05:02.026Z,20.54
2022-08-05T22:07:39.334Z,20.63
2022-08-05T22:10:25.488Z,20.57
2022-08-05T22:12:53.905Z,20.66
2022-08-05T22:16:01.498Z,20.67
2022-08-05T22:18:08.706Z,20.76
2022-08-05T22:20:39.003Z,20.75
2022-08-05T22:23:24.793Z,20.77
2022-08-05T22:26:30.303Z,20.79
2022-08-05T22:28:57.368Z,20.83
2022-08-05T22:31:29.989Z,20.92
2022-08-05T22:34:01.010Z,20.89
2022-08-05T22:36:28.368Z,21.06
2022-08-05T22:38:56.853Z,21.07
2022-08-05T22:41:26.307Z,21.10
2022-08-05T22:44:12.112Z,21.19
2022-08-05T22:46:40.799Z,21.05
2022-08-05T22:49:23.110Z,21.17
2022-08-05T22:52:06.643Z,21.19
2022-08-05T22:54:36.278Z,21.24
2022-08-05T22:57:05.073Z,21.25
2022-08-05T22:59:45.279Z,21.09
2022-08-05T23:02:17.800Z,21.23
2022-08-05T23:04:51.604Z,21.18
2022-08-05T23:07:21.915Z,21.03
2022-08-05T23:09:56.979Z,20.91
2022-08-05T23:12:32.851Z,20.87
2022-08-05T23:15:00.564Z,20.75
2022-08-05T23:17:34.390Z,20.64
2022-08-05T23:20:16.990Z,20.60
2022-08-05T23:22:48.712Z,20.56
2022-08-05T23:25:51.178Z,20.62
2022-08-05T23:28:06.861Z,20.74
2022-08-05T23:30:40.326Z,20.51
2022-08-05T23:33:21.894Z,20.32
2022-08-05T23:35:50.413Z,20.27
2022-08-05T23:38:18.151Z,20.21
2022-08-05T23:40:49.887Z,20.12
2022-08-05T23:43:25.335Z,20.10
2022-08-05T23:46:21.133Z,20.18
2022-08-05T23:49:00.840Z,20.15
2022-08-05T23:51:53.612Z,20.08
2022-08-05T23:54:26.744Z,20.20
2022-08-05T23:57:03.371Z,20.18
